»·PEaware :: N290TW KRHV-KFAT

N290TW :: KRHV-KFAT

FLIGHT INFORMATION

Flight Status: Arrived
Operator: Privately registered:
United States
More flights under this callsign
Pilot: Chris B. (23589)
Aircraft: CESSNA 172 SKYHAWK
(C172)
More flights by this aircraft type
Origin: KRHV Reid-Hillview
United States
Destination: KFAT Fresno Yosemite Intl
United States
More flights between these airports :: More routes between these airports
Route: VINCO V107 PXN V230 AMEER
File this flight plan on PilotEdge
Remarks:
Altitude:
(Current/Filed)
7,000ft
Speed:
(Current/Filed)
110kts
Departed: 07-Jul-20 05:45 PM
Arrived: 07-Jul-20 06:50 PM
Distance/Time
Traveled:
105nm/1:05
Distance/Time
To Go:
Arrived

Flight Plot

Page will automatically refresh every two minutes.

Flight plan parsing failed; only flown route is shown


Map Options




Map Legend


Flown Route
Filed Route
Departure Airport
Arrival Airport
Navaid (VOR, NDB)
Fix

Horizontal Profiles

Position Reports

Time Latitude Longitude Heading Altitude Ground
Speed
07-Jul-20 17:26 37.335009 -121.819148 142 127ft 0kts
07-Jul-20 17:27 37.335009 -121.819148 142 127ft 0kts
07-Jul-20 17:28 37.335009 -121.819148 142 127ft 0kts
07-Jul-20 17:29 37.335009 -121.819148 142 127ft 0kts
07-Jul-20 17:30 37.334814 -121.819178 226 127ft 0kts
07-Jul-20 17:31 37.334814 -121.819178 226 127ft 0kts
07-Jul-20 17:32 37.334814 -121.819178 226 127ft 0kts
07-Jul-20 17:33 37.334814 -121.819178 226 127ft 0kts
07-Jul-20 17:34 37.334814 -121.819178 226 127ft 0kts
07-Jul-20 17:35 37.334814 -121.819178 226 127ft 0kts
07-Jul-20 17:36 37.334814 -121.819178 226 127ft 0kts
07-Jul-20 17:36 37.334814 -121.819178 226 127ft 0kts
07-Jul-20 17:38 37.334814 -121.819178 226 127ft 0kts
07-Jul-20 17:39 37.334814 -121.819178 226 127ft 0kts
07-Jul-20 17:39 37.334661 -121.819692 316 126ft 1kts
07-Jul-20 17:40 37.331736 -121.816909 143 131ft 11kts
07-Jul-20 17:41 37.330231 -121.815887 174 132ft 0kts
07-Jul-20 17:42 37.330231 -121.815887 174 132ft 0kts
07-Jul-20 17:43 37.330231 -121.815887 174 132ft 0kts
07-Jul-20 17:44 37.331678 -121.818045 322 129ft 60kts
07-Jul-20 17:45 37.349134 -121.830730 1 981ft 76kts
07-Jul-20 17:46 37.359064 -121.809897 75 1841ft 75kts
07-Jul-20 17:47 37.364979 -121.784053 75 2610ft 78kts
07-Jul-20 17:48 37.370478 -121.757616 75 3331ft 79kts
07-Jul-20 17:49 37.375327 -121.731147 118 3979ft 82kts
07-Jul-20 17:50 37.360576 -121.710264 132 4692ft 80kts
07-Jul-20 17:51 37.345906 -121.688963 129 5370ft 81kts
07-Jul-20 17:52 37.330580 -121.668033 133 6014ft 82kts
07-Jul-20 17:53 37.314273 -121.647953 140 6629ft 82kts
07-Jul-20 17:54 37.304137 -121.621700 109 7086ft 92kts
07-Jul-20 17:55 37.295172 -121.587125 112 7137ft 109kts
07-Jul-20 17:56 37.284866 -121.550719 107 7075ft 110kts
07-Jul-20 17:57 37.275041 -121.514189 107 7035ft 109kts
07-Jul-20 17:58 37.265699 -121.477878 107 7026ft 109kts
07-Jul-20 17:59 37.256289 -121.441507 106 7038ft 109kts
07-Jul-20 18:00 37.246827 -121.405280 108 7075ft 109kts
07-Jul-20 18:01 37.237429 -121.369077 107 7086ft 109kts
07-Jul-20 18:02 37.227927 -121.332699 108 7047ft 109kts
07-Jul-20 18:03 37.218527 -121.296602 108 7052ft 108kts
07-Jul-20 18:04 37.209205 -121.260559 106 7119ft 108kts
07-Jul-20 18:05 37.199681 -121.224240 108 7126ft 110kts
07-Jul-20 18:06 37.189734 -121.187781 108 7126ft 111kts
07-Jul-20 18:07 37.179630 -121.151026 108 7126ft 111kts
07-Jul-20 18:08 37.169507 -121.114285 108 7126ft 111kts
07-Jul-20 18:09 37.159343 -121.077443 108 7126ft 111kts
07-Jul-20 18:10 37.149170 -121.040608 108 7126ft 111kts
07-Jul-20 18:11 37.139015 -121.003887 108 7126ft 111kts
07-Jul-20 18:12 37.128794 -120.966972 108 7126ft 111kts
07-Jul-20 18:13 37.118592 -120.930174 108 7126ft 112kts
07-Jul-20 18:14 37.108755 -120.894741 108 7126ft 112kts
07-Jul-20 18:15 37.098125 -120.856507 108 7126ft 112kts
07-Jul-20 18:16 37.087850 -120.819602 108 7126ft 112kts
07-Jul-20 18:17 37.077581 -120.782771 108 7126ft 112kts
07-Jul-20 18:18 37.067301 -120.745947 108 7126ft 112kts
07-Jul-20 18:19 37.056990 -120.709093 108 7126ft 112kts
07-Jul-20 18:20 37.046658 -120.672219 108 7126ft 112kts
07-Jul-20 18:21 37.036322 -120.635357 108 7126ft 112kts
07-Jul-20 18:22 37.024997 -120.599443 106 7126ft 111kts
07-Jul-20 18:23 37.015481 -120.562354 108 7126ft 112kts
07-Jul-20 18:24 37.005311 -120.525356 108 7126ft 112kts
07-Jul-20 18:25 36.994956 -120.488399 108 7126ft 112kts
07-Jul-20 18:26 36.984580 -120.451583 108 7126ft 112kts
07-Jul-20 18:27 36.976259 -120.417306 104 7126ft 112kts
07-Jul-20 18:28 36.967070 -120.379999 107 7126ft 112kts
07-Jul-20 18:29 36.956935 -120.342931 109 7126ft 112kts
07-Jul-20 18:30 36.946437 -120.305640 109 7130ft 119kts
07-Jul-20 18:31 36.934220 -120.265340 110 7127ft 126kts
07-Jul-20 18:32 36.922120 -120.223784 109 7126ft 128kts
07-Jul-20 18:33 36.909706 -120.182429 111 6470ft 127kts
07-Jul-20 18:34 36.897907 -120.142987 109 5523ft 118kts
07-Jul-20 18:35 36.887170 -120.104463 110 4689ft 116kts
07-Jul-20 18:36 36.876356 -120.066547 108 4042ft 114kts
07-Jul-20 18:37 36.865675 -120.030294 108 4038ft 110kts
07-Jul-20 18:38 36.855649 -119.994657 108 4158ft 107kts
07-Jul-20 18:39 36.846699 -119.958878 107 4160ft 107kts
07-Jul-20 18:40 36.837738 -119.922391 110 3742ft 110kts
07-Jul-20 18:41 36.827218 -119.885991 112 3081ft 111kts
07-Jul-20 18:42 36.815459 -119.850590 112 2468ft 110kts
07-Jul-20 18:43 36.802469 -119.816715 115 1943ft 104kts
07-Jul-20 18:44 36.790552 -119.783869 113 1405ft 98kts
07-Jul-20 18:45 36.777304 -119.756267 121 1395ft 90kts
07-Jul-20 18:46 36.764249 -119.729683 122 1408ft 88kts
07-Jul-20 18:47 36.754238 -119.706474 60 1000ft 76kts
07-Jul-20 18:48 36.769105 -119.707998 304 484ft 65kts
07-Jul-20 18:49 36.773715 -119.717788 216 329ft 0kts
07-Jul-20 18:50 36.773546 -119.718381 321 329ft 16kts
07-Jul-20 18:51 36.778668 -119.727215 304 331ft 47kts
07-Jul-20 18:52 36.777671 -119.729233 123 329ft 0kts

Navigation Log

Ident Type
Flight plan parsing failed, navigation log unavailable